Time;durP1;ratioP1;P1;durP2;ratioP2;P2;SDS_P1;SDS_P2;PMS_P1;PMS_P2;Temp;Humidity;BMP_temperature;BMP_pressure;BME280_temperature;BME280_humidity;BME280_pressure;Samples;Min_cycle;Max_cycle;Signal;HPM_P1;HPM_P2
2023/01/30 00:01:32;;;;;;;1133.20;999.90;;;3.80;99.90;;;;;;5028157;28;20505;-58
2023/01/30 00:03:58;;;;;;;1120.95;999.90;;;3.90;99.90;;;;;;5028505;28;20699;-56
2023/01/30 00:06:25;;;;;;;1114.13;999.90;;;3.90;99.90;;;;;;5028642;28;20719;-58
2023/01/30 00:08:51;;;;;;;1124.07;999.90;;;3.90;99.90;;;;;;5028924;28;20394;-54
2023/01/30 00:11:21;;;;;;;1122.55;999.90;;;3.90;99.90;;;;;;5030687;28;20387;-56
2023/01/30 00:13:48;;;;;;;1127.20;999.90;;;3.90;99.90;;;;;;5032084;28;20383;-58
2023/01/30 00:16:14;;;;;;;1117.40;999.90;;;3.90;99.90;;;;;;5032541;28;20783;-58
2023/01/30 00:18:40;;;;;;;1124.47;999.90;;;3.90;99.90;;;;;;5031672;28;20387;-56
2023/01/30 00:21:08;;;;;;;1144.53;999.90;;;4.00;99.90;;;;;;5032133;28;20410;-57
2023/01/30 00:23:35;;;;;;;1158.68;999.90;;;4.00;99.90;;;;;;5031966;28;20387;-53
2023/01/30 00:26:02;;;;;;;1119.05;999.90;;;4.10;99.90;;;;;;5028981;28;20640;-54
2023/01/30 00:28:28;;;;;;;1084.72;990.72;;;4.10;99.90;;;;;;5028415;28;20407;-57
2023/01/30 00:30:55;;;;;;;1111.32;999.90;;;4.10;99.90;;;;;;5027890;28;20437;-56
2023/01/30 00:33:22;;;;;;;1129.05;999.90;;;4.10;99.90;;;;;;5027758;28;20406;-54
2023/01/30 00:35:49;;;;;;;1140.75;999.90;;;4.10;99.90;;;;;;5025744;28;20606;-55
2023/01/30 00:38:16;;;;;;;1150.35;999.90;;;4.10;99.90;;;;;;5025360;28;20397;-58
2023/01/30 00:40:43;;;;;;;1124.32;999.90;;;4.20;99.90;;;;;;5026701;28;20469;-54
2023/01/30 00:48:44;;;;;;;1117.80;999.90;;;4.20;99.90;;;;;;5029334;28;20809;-58
2023/01/30 00:51:11;;;;;;;1103.63;999.90;;;4.20;99.90;;;;;;5029996;28;21488;-56
2023/01/30 00:53:37;;;;;;;1105.27;999.90;;;4.20;99.90;;;;;;5031070;28;20405;-58
2023/01/30 00:56:03;;;;;;;1135.87;999.90;;;4.20;99.90;;;;;;5027074;28;20398;-57
2023/01/30 00:58:28;;;;;;;1124.38;999.90;;;4.30;99.90;;;;;;5027262;28;20419;-58
2023/01/30 01:00:55;;;;;;;1113.97;999.90;;;4.30;99.90;;;;;;5028287;28;20496;-59
2023/01/30 01:03:20;;;;;;;1096.43;999.90;;;4.30;99.90;;;;;;5028218;28;20395;-58
2023/01/30 01:05:46;;;;;;;1099.80;999.90;;;4.40;99.90;;;;;;5029128;28;20497;-59
2023/01/30 01:08:12;;;;;;;1071.67;982.53;;;4.30;99.90;;;;;;5029711;28;20442;-58
2023/01/30 01:10:38;;;;;;;1065.13;975.95;;;4.40;99.90;;;;;;5030606;28;20999;-57
2023/01/30 01:13:05;;;;;;;1047.93;962.27;;;4.50;99.90;;;;;;5029726;28;20402;-55
2023/01/30 01:15:30;;;;;;;1063.90;975.90;;;4.40;99.90;;;;;;5031775;28;20385;-59
2023/01/30 01:17:56;;;;;;;1036.30;948.50;;;4.50;99.90;;;;;;5031431;28;20391;-59
2023/01/30 01:20:22;;;;;;;1075.00;983.80;;;4.50;99.90;;;;;;5031455;28;20407;-59
2023/01/30 01:22:52;;;;;;;1052.70;966.08;;;4.50;99.90;;;;;;5029979;28;20411;-58
2023/01/30 01:25:18;;;;;;;1119.78;999.90;;;4.50;99.90;;;;;;5029660;28;20896;-58
2023/01/30 01:27:44;;;;;;;1090.47;995.70;;;4.50;99.90;;;;;;5028959;28;20417;-56
2023/01/30 01:30:11;;;;;;;1112.15;999.90;;;4.50;99.90;;;;;;5029644;28;20620;-56
2023/01/30 01:32:37;;;;;;;1118.95;999.90;;;4.50;99.90;;;;;;5030708;28;20445;-58
2023/01/30 01:35:02;;;;;;;1137.90;999.90;;;4.50;99.90;;;;;;5029407;28;20394;-59
2023/01/30 01:37:28;;;;;;;1149.35;999.90;;;4.50;99.90;;;;;;5030668;28;20417;-59
2023/01/30 01:42:38;;;;;;;1132.53;999.90;;;4.60;99.90;;;;;;5031634;28;20892;-56
2023/01/30 01:45:15;;;;;;;1123.00;999.90;;;4.60;99.90;;;;;;5030609;28;20395;-57
2023/01/30 01:47:46;;;;;;;1133.43;999.90;;;4.60;99.90;;;;;;5031336;28;20415;-58
2023/01/30 01:50:21;;;;;;;1135.82;999.90;;;4.60;99.90;;;;;;5032046;28;20399;-54
2023/01/30 01:52:49;;;;;;;1115.97;999.90;;;4.60;99.90;;;;;;5032080;28;20397;-58
2023/01/30 01:55:15;;;;;;;1135.75;999.90;;;4.60;99.90;;;;;;5032012;28;20873;-56
2023/01/30 01:57:53;;;;;;;1113.53;999.90;;;4.60;99.90;;;;;;5030895;28;20407;-58
2023/01/30 02:00:20;;;;;;;1114.60;999.90;;;4.60;99.90;;;;;;5032378;28;20391;-56
2023/01/30 02:02:55;;;;;;;1094.75;999.90;;;4.60;99.90;;;;;;5032718;28;20399;-54
2023/01/30 02:05:22;;;;;;;1124.25;999.90;;;4.60;99.90;;;;;;5031557;28;20802;-59
2023/01/30 02:07:59;;;;;;;1105.80;999.90;;;4.70;99.90;;;;;;5031248;28;20411;-55
2023/01/30 02:10:39;;;;;;;1102.05;999.90;;;4.70;99.90;;;;;;5033842;28;20502;-52
2023/01/30 02:13:04;;;;;;;1143.35;999.90;;;4.70;99.90;;;;;;5033494;28;20659;-56
2023/01/30 02:15:30;;;;;;;1122.40;999.90;;;4.70;99.90;;;;;;5032087;28;20393;-58
2023/01/30 02:17:56;;;;;;;1118.72;999.90;;;4.70;99.90;;;;;;5032836;28;20397;-56
2023/01/30 02:20:35;;;;;;;1120.20;999.90;;;4.70;99.90;;;;;;5033409;28;20382;-57
2023/01/30 02:23:07;;;;;;;1138.65;999.90;;;4.70;99.90;;;;;;5035276;28;20402;-55
2023/01/30 02:25:50;;;;;;;1134.95;999.90;;;4.70;99.90;;;;;;5033845;28;20595;-56
2023/01/30 02:28:44;;;;;;;1149.20;999.90;;;4.70;99.90;;;;;;5032759;28;20819;-55
2023/01/30 02:31:47;;;;;;;1156.57;999.90;;;4.70;99.90;;;;;;5032038;28;20477;-55
2023/01/30 02:34:24;;;;;;;1153.00;999.90;;;4.70;99.90;;;;;;5031041;28;20383;-55
2023/01/30 02:37:14;;;;;;;1154.28;999.90;;;4.70;99.90;;;;;;5031888;28;20418;-56
2023/01/30 02:40:00;;;;;;;1163.25;999.90;;;4.70;99.90;;;;;;5032131;28;20434;-57
2023/01/30 02:42:37;;;;;;;1128.38;999.90;;;4.70;99.90;;;;;;5032386;28;20383;-59
2023/01/30 02:45:09;;;;;;;1183.18;999.90;;;4.70;99.90;;;;;;5032461;28;20699;-57
2023/01/30 02:48:09;;;;;;;1152.93;999.90;;;4.80;99.90;;;;;;5031947;28;20413;-56
2023/01/30 02:50:48;;;;;;;1142.97;999.90;;;4.80;99.90;;;;;;5031845;28;20413;-57
2023/01/30 02:53:14;;;;;;;1169.15;999.90;;;4.80;99.90;;;;;;5032323;28;20402;-58
2023/01/30 02:55:41;;;;;;;1206.10;999.90;;;4.80;99.90;;;;;;5032997;28;20387;-55
2023/01/30 02:58:08;;;;;;;1206.72;999.90;;;4.80;99.90;;;;;;5033719;28;20536;-56
2023/01/30 03:00:47;;;;;;;1191.33;999.90;;;4.80;99.90;;;;;;5032544;28;20734;-58
2023/01/30 03:04:03;;;;;;;1176.00;999.90;;;4.80;99.90;;;;;;5032108;28;20752;-57
2023/01/30 03:06:53;;;;;;;1161.25;999.90;;;4.90;99.90;;;;;;4998187;28;20422;-58
2023/01/30 03:09:35;;;;;;;1217.93;999.90;;;4.90;99.90;;;;;;5031850;28;20391;-56
2023/01/30 03:12:53;;;;;;;1201.60;999.90;;;4.90;99.90;;;;;;5032759;28;20462;-57
2023/01/30 03:15:34;;;;;;;1161.75;999.90;;;4.90;99.90;;;;;;5000468;28;20382;-57
2023/01/30 03:18:01;;;;;;;1195.53;999.90;;;5.00;99.90;;;;;;5032511;28;20379;-58
2023/01/30 03:20:26;;;;;;;1192.47;999.90;;;5.00;99.90;;;;;;5032174;28;20763;-57
2023/01/30 03:22:53;;;;;;;1188.68;999.90;;;5.00;99.90;;;;;;5032021;28;20413;-56
2023/01/30 03:25:25;;;;;;;1193.43;999.90;;;5.00;99.90;;;;;;5031373;28;20399;-58
2023/01/30 03:27:53;;;;;;;1192.07;999.90;;;5.10;99.90;;;;;;5030779;28;20443;-57
2023/01/30 03:30:19;;;;;;;1203.07;999.90;;;5.10;99.90;;;;;;5030894;28;20379;-59
2023/01/30 03:32:45;;;;;;;1206.05;999.90;;;5.20;99.90;;;;;;5030431;28;20409;-56
2023/01/30 03:35:11;;;;;;;1211.88;999.90;;;5.20;99.90;;;;;;5032444;28;20382;-57
2023/01/30 03:37:37;;;;;;;1190.47;999.90;;;5.20;99.90;;;;;;5034090;28;20566;-57
2023/01/30 03:40:03;;;;;;;1207.93;999.90;;;5.20;99.90;;;;;;5032816;28;20426;-56
2023/01/30 03:42:29;;;;;;;1196.63;999.90;;;5.20;99.90;;;;;;5034318;28;20387;-58
2023/01/30 03:44:55;;;;;;;1207.50;999.90;;;5.20;99.90;;;;;;5033010;28;20399;-56
2023/01/30 03:47:20;;;;;;;1212.55;999.90;;;5.20;99.90;;;;;;5033364;28;20407;-57
2023/01/30 03:49:46;;;;;;;1206.73;999.90;;;5.20;99.90;;;;;;5033292;28;20609;-58
2023/01/30 03:52:12;;;;;;;1197.03;999.90;;;5.30;99.90;;;;;;5034178;28;20457;-56
2023/01/30 03:54:37;;;;;;;1202.47;999.90;;;5.20;99.90;;;;;;5032510;28;20548;-57
2023/01/30 03:57:03;;;;;;;1213.10;999.90;;;5.30;99.90;;;;;;5032629;28;20791;-58
2023/01/30 03:59:28;;;;;;;1201.13;999.90;;;5.30;99.90;;;;;;5032599;28;20394;-55
2023/01/30 04:01:54;;;;;;;1210.23;999.90;;;5.30;99.90;;;;;;5032527;28;20456;-57
2023/01/30 04:04:20;;;;;;;1203.90;999.90;;;5.30;99.90;;;;;;5033039;28;20391;-57
2023/01/30 04:06:45;;;;;;;1202.97;999.90;;;5.40;99.90;;;;;;5032187;28;20830;-57
2023/01/30 04:09:11;;;;;;;1198.28;999.90;;;5.40;99.90;;;;;;5033066;28;20790;-58
2023/01/30 04:11:36;;;;;;;1206.38;999.90;;;5.40;99.90;;;;;;5032300;28;20394;-59
2023/01/30 04:14:02;;;;;;;1217.47;999.90;;;5.40;99.90;;;;;;5032889;28;20394;-59
2023/01/30 04:16:28;;;;;;;1199.20;999.90;;;5.40;99.90;;;;;;5032812;28;20395;-59
2023/01/30 04:18:53;;;;;;;1221.87;999.90;;;5.40;99.90;;;;;;5032142;28;20714;-59
2023/01/30 04:21:19;;;;;;;1211.22;999.90;;;5.40;99.90;;;;;;5031700;28;20399;-57
2023/01/30 04:23:45;;;;;;;1219.57;999.90;;;5.50;99.90;;;;;;5031545;28;20430;-57
2023/01/30 04:26:12;;;;;;;1204.45;999.90;;;5.50;99.90;;;;;;5031660;28;20589;-58
2023/01/30 04:28:38;;;;;;;1196.22;999.90;;;5.50;99.90;;;;;;5030514;28;20395;-58
2023/01/30 04:31:04;;;;;;;1211.35;999.90;;;5.60;99.90;;;;;;5030322;28;20379;-58
2023/01/30 04:33:34;;;;;;;1195.22;999.90;;;5.60;99.90;;;;;;5029624;28;20734;-60
2023/01/30 04:36:00;;;;;;;1195.57;999.90;;;5.60;99.90;;;;;;5030171;28;20378;-59
2023/01/30 04:38:27;;;;;;;1182.65;999.90;;;5.60;99.90;;;;;;5030226;28;20390;-55
2023/01/30 04:40:54;;;;;;;1163.23;999.90;;;5.60;99.90;;;;;;5030031;28;20817;-57
2023/01/30 04:43:21;;;;;;;1154.30;999.90;;;5.60;99.90;;;;;;5030888;28;20477;-57
2023/01/30 04:45:48;;;;;;;1114.65;999.90;;;5.60;99.90;;;;;;5031367;28;20416;-58
2023/01/30 04:48:14;;;;;;;1122.18;999.90;;;5.60;99.90;;;;;;5029216;28;20418;-57
2023/01/30 04:50:41;;;;;;;1114.13;999.90;;;5.60;99.90;;;;;;5028914;28;20496;-57
2023/01/30 04:53:06;;;;;;;1102.57;999.90;;;5.60;99.90;;;;;;5026364;28;20433;-59
2023/01/30 04:55:32;;;;;;;1092.63;999.90;;;5.60;99.90;;;;;;5027570;28;20722;-59
2023/01/30 04:57:58;;;;;;;1098.35;999.90;;;5.60;99.90;;;;;;5025844;28;20411;-59
2023/01/30 05:00:23;;;;;;;1103.60;999.90;;;5.60;99.90;;;;;;5024648;28;20624;-59
2023/01/30 05:02:50;;;;;;;1098.87;999.90;;;5.60;99.90;;;;;;5023583;28;20822;-58
2023/01/30 05:05:16;;;;;;;1094.82;999.90;;;5.70;99.90;;;;;;5026491;28;20482;-60
2023/01/30 05:07:41;;;;;;;1101.43;999.90;;;5.60;99.90;;;;;;5027851;28;20407;-53
2023/01/30 05:10:07;;;;;;;1095.20;999.90;;;5.60;99.90;;;;;;5029092;28;20415;-59
2023/01/30 05:12:33;;;;;;;1081.30;993.83;;;5.60;99.90;;;;;;5028745;28;20379;-57
2023/01/30 05:15:00;;;;;;;1080.77;991.10;;;5.60;99.90;;;;;;5028665;28;20383;-54
2023/01/30 05:17:26;;;;;;;1084.65;996.03;;;5.60;99.90;;;;;;5029898;28;20683;-59
2023/01/30 05:19:51;;;;;;;1073.57;984.55;;;5.50;99.90;;;;;;5028910;28;20499;-57
2023/01/30 05:22:17;;;;;;;1095.60;999.90;;;5.50;99.90;;;;;;5027623;28;20502;-56
2023/01/30 05:24:42;;;;;;;1067.90;978.95;;;5.50;99.90;;;;;;5028274;28;20395;-60
2023/01/30 05:27:08;;;;;;;1079.57;991.27;;;5.50;99.90;;;;;;5028198;28;20434;-57
2023/01/30 05:29:34;;;;;;;1087.20;996.80;;;5.50;99.90;;;;;;5027904;28;20517;-57
2023/01/30 05:31:59;;;;;;;1065.45;978.40;;;5.50;99.90;;;;;;5024897;28;20391;-57
2023/01/30 05:34:25;;;;;;;1063.50;976.83;;;5.50;99.90;;;;;;5025123;28;20555;-58
2023/01/30 05:36:51;;;;;;;1063.40;977.10;;;5.50;99.90;;;;;;5026147;28;20399;-58
2023/01/30 05:39:16;;;;;;;1064.13;978.08;;;5.50;99.90;;;;;;5026725;28;20457;-57
2023/01/30 05:41:42;;;;;;;1066.07;979.73;;;5.40;99.90;;;;;;5026265;28;20383;-59
2023/01/30 05:44:07;;;;;;;1053.57;969.57;;;5.40;99.90;;;;;;5028611;28;20686;-59
2023/01/30 05:46:33;;;;;;;1052.22;968.10;;;5.50;99.90;;;;;;5026765;28;20418;-59
2023/01/30 05:48:58;;;;;;;1078.83;989.83;;;5.40;99.90;;;;;;5024845;28;20626;-57
2023/01/30 05:51:25;;;;;;;1081.90;993.37;;;5.40;99.90;;;;;;5023279;28;20688;-59
2023/01/30 05:53:52;;;;;;;1074.68;988.67;;;5.40;99.90;;;;;;5023672;28;20656;-59
2023/01/30 05:56:18;;;;;;;1064.13;980.63;;;5.40;99.90;;;;;;5025055;28;20545;-59
2023/01/30 05:58:50;;;;;;;1067.22;983.38;;;5.40;99.90;;;;;;5025635;28;20391;-57
2023/01/30 06:01:15;;;;;;;1063.25;977.65;;;5.30;99.90;;;;;;5027646;28;20489;-58
2023/01/30 06:03:41;;;;;;;1065.10;980.00;;;5.30;99.90;;;;;;5027630;28;20391;-54
2023/01/30 06:06:07;;;;;;;1065.07;979.37;;;5.30;99.90;;;;;;5028227;28;20491;-55
2023/01/30 06:08:32;;;;;;;1054.70;970.45;;;5.30;99.90;;;;;;5027583;28;20548;-58
2023/01/30 06:11:09;;;;;;;1039.97;955.40;;;5.30;99.90;;;;;;5028405;28;20386;-60
2023/01/30 06:13:36;;;;;;;1060.93;976.30;;;5.20;99.90;;;;;;5026923;28;20394;-59
2023/01/30 06:16:02;;;;;;;1034.53;952.95;;;5.20;99.90;;;;;;5026579;28;20402;-55
2023/01/30 06:18:27;;;;;;;979.90;903.10;;;5.20;99.90;;;;;;5027583;28;20391;-58
2023/01/30 06:20:53;;;;;;;993.35;915.20;;;5.10;99.90;;;;;;5028735;28;20393;-58
2023/01/30 06:23:20;;;;;;;982.28;901.78;;;5.20;99.90;;;;;;5027171;28;20606;-58
2023/01/30 06:25:47;;;;;;;962.88;886.40;;;5.10;99.90;;;;;;5027999;28;20406;-59
2023/01/30 06:28:13;;;;;;;965.60;889.30;;;5.10;99.90;;;;;;5027700;28;20716;-59
2023/01/30 06:30:39;;;;;;;961.40;885.38;;;5.10;99.90;;;;;;5026705;28;20760;-54
2023/01/30 06:33:06;;;;;;;976.83;898.05;;;5.10;99.90;;;;;;5024728;28;20798;-57
2023/01/30 06:35:31;;;;;;;1001.97;919.37;;;5.10;99.90;;;;;;5022826;28;20394;-58
2023/01/30 06:37:57;;;;;;;987.93;909.03;;;5.00;99.90;;;;;;5022709;28;20490;-58
2023/01/30 06:40:23;;;;;;;1016.30;932.13;;;5.00;99.90;;;;;;5021212;28;20383;-59
2023/01/30 06:42:49;;;;;;;993.65;913.35;;;5.00;99.90;;;;;;5022103;28;20605;-55
2023/01/30 06:45:16;;;;;;;1018.30;935.92;;;5.00;99.90;;;;;;5023401;28;20696;-58
2023/01/30 06:47:53;;;;;;;999.60;919.30;;;5.00;99.90;;;;;;5020296;28;20405;-59
2023/01/30 06:50:21;;;;;;;920.88;849.33;;;5.00;99.90;;;;;;4985555;28;20600;-56
2023/01/30 06:52:48;;;;;;;965.28;889.65;;;5.00;99.90;;;;;;4984520;28;20416;-57
2023/01/30 06:55:16;;;;;;;935.10;862.30;;;5.00;99.90;;;;;;4984650;28;20400;-56
2023/01/30 06:57:42;;;;;;;916.40;846.73;;;5.00;99.90;;;;;;5000254;28;20525;-57
2023/01/30 07:00:11;;;;;;;941.13;869.60;;;5.00;99.90;;;;;;4980464;28;20591;-59
2023/01/30 07:02:37;;;;;;;962.55;888.60;;;5.00;99.90;;;;;;4980816;28;20532;-57
2023/01/30 07:05:04;;;;;;;946.97;875.10;;;4.90;99.90;;;;;;4979810;28;20437;-58
2023/01/30 07:07:30;;;;;;;994.13;917.80;;;4.90;99.90;;;;;;4978308;28;20474;-56
2023/01/30 07:09:57;;;;;;;927.40;857.00;;;4.90;99.90;;;;;;4997798;28;20593;-58
2023/01/30 07:12:23;;;;;;;970.92;897.20;;;4.90;99.90;;;;;;4980689;28;20392;-58
2023/01/30 07:14:50;;;;;;;971.63;898.77;;;5.00;99.90;;;;;;4982397;28;20381;-57
2023/01/30 07:17:16;;;;;;;926.58;857.30;;;5.00;99.90;;;;;;4999348;28;20396;-56
2023/01/30 07:19:42;;;;;;;947.45;876.80;;;5.00;99.90;;;;;;4979724;28;20393;-56
2023/01/30 07:22:08;;;;;;;932.50;864.92;;;5.00;99.90;;;;;;4993978;28;20404;-58
2023/01/30 07:24:33;;;;;;;897.00;832.07;;;5.00;99.90;;;;;;4992493;28;20553;-58
2023/01/30 07:26:58;;;;;;;888.87;825.30;;;5.00;99.90;;;;;;4975488;28;20423;-53
2023/01/30 07:29:24;;;;;;;913.27;848.07;;;5.00;99.90;;;;;;4976069;28;20458;-55
2023/01/30 07:31:50;;;;;;;914.15;849.38;;;5.00;99.90;;;;;;4992381;28;20928;-57
2023/01/30 07:34:16;;;;;;;887.00;824.20;;;5.00;99.90;;;;;;4991566;28;20858;-58
2023/01/30 07:36:41;;;;;;;893.30;830.05;;;5.00;99.90;;;;;;4974832;28;20819;-57
2023/01/30 07:39:10;;;;;;;879.73;818.17;;;5.00;99.90;;;;;;4974234;28;20661;-56
2023/01/30 07:41:36;;;;;;;904.38;842.05;;;5.00;99.90;;;;;;4975360;28;20393;-56
2023/01/30 07:44:02;;;;;;;917.07;852.63;;;5.00;99.90;;;;;;4992827;28;20397;-57
2023/01/30 07:46:33;;;;;;;921.03;855.00;;;5.00;99.90;;;;;;4995224;28;20591;-57
2023/01/30 07:48:59;;;;;;;881.80;819.00;;;5.00;99.90;;;;;;4995524;28;20403;-56
2023/01/30 07:51:25;;;;;;;919.55;854.63;;;5.10;99.90;;;;;;5016793;28;20638;-59
2023/01/30 07:53:50;;;;;;;910.73;846.07;;;5.10;99.90;;;;;;5016508;28;20442;-55
2023/01/30 07:56:18;;;;;;;904.93;840.20;;;5.20;99.90;;;;;;5016421;28;20825;-56
2023/01/30 07:58:44;;;;;;;869.38;807.22;;;5.20;99.90;;;;;;5015569;28;20682;-58
2023/01/30 08:01:10;;;;;;;904.27;839.13;;;5.20;99.90;;;;;;5016937;28;20387;-58
2023/01/30 08:03:35;;;;;;;892.83;827.00;;;5.20;99.90;;;;;;5013711;28;20665;-56
2023/01/30 08:06:01;;;;;;;927.55;859.05;;;5.20;99.90;;;;;;5011627;28;20419;-58
2023/01/30 08:08:26;;;;;;;871.17;806.75;;;5.30;99.90;;;;;;5012408;28;20662;-58
2023/01/30 08:10:52;;;;;;;886.33;819.87;;;5.30;99.90;;;;;;5013196;28;20573;-58
2023/01/30 08:13:17;;;;;;;926.83;853.97;;;5.40;99.90;;;;;;5017144;28;20383;-58
2023/01/30 08:15:43;;;;;;;866.80;799.45;;;5.40;99.90;;;;;;5014655;28;20486;-58
2023/01/30 08:18:08;;;;;;;900.73;831.33;;;5.40;99.90;;;;;;5017301;28;20849;-55
2023/01/30 08:20:35;;;;;;;894.27;825.07;;;5.40;99.90;;;;;;5015626;28;20698;-55
2023/01/30 08:23:02;;;;;;;874.78;806.80;;;5.40;99.90;;;;;;5022242;28;20515;-58
2023/01/30 08:25:29;;;;;;;892.47;822.55;;;5.40;99.90;;;;;;5025193;28;20383;-58
2023/01/30 08:27:56;;;;;;;885.53;817.67;;;5.50;99.90;;;;;;5025183;28;20812;-58
2023/01/30 08:30:22;;;;;;;888.20;819.03;;;5.50;99.90;;;;;;5019941;28;20481;-59
2023/01/30 08:32:48;;;;;;;893.55;826.83;;;5.50;99.90;;;;;;5018124;28;20798;-55
2023/01/30 08:35:14;;;;;;;877.63;811.75;;;5.50;99.90;;;;;;5017751;28;20383;-58
2023/01/30 08:37:40;;;;;;;872.80;807.10;;;5.60;99.90;;;;;;5017352;28;20989;-59
2023/01/30 08:40:07;;;;;;;895.80;829.40;;;5.60;99.90;;;;;;5016249;28;20459;-58
2023/01/30 08:42:33;;;;;;;838.15;777.38;;;5.70;99.90;;;;;;5013202;28;20383;-56
2023/01/30 08:44:58;;;;;;;858.80;795.73;;;5.70;99.90;;;;;;5014172;28;20413;-59
2023/01/30 08:47:24;;;;;;;815.63;756.33;;;5.70;99.90;;;;;;5012593;28;20906;-59
2023/01/30 08:49:51;;;;;;;852.22;786.92;;;5.70;99.90;;;;;;5009888;28;20830;-57
2023/01/30 08:52:17;;;;;;;850.72;788.53;;;5.80;99.90;;;;;;5010048;28;20395;-57
2023/01/30 08:54:43;;;;;;;867.05;803.80;;;5.80;99.90;;;;;;5010608;28;20422;-57
2023/01/30 08:57:08;;;;;;;860.88;796.28;;;5.70;99.90;;;;;;5006818;28;20731;-58
2023/01/30 08:59:34;;;;;;;886.17;819.97;;;5.80;99.90;;;;;;5006564;28;21022;-57
2023/01/30 09:01:59;;;;;;;859.50;796.27;;;5.80;99.90;;;;;;5007315;28;20457;-57
2023/01/30 09:04:27;;;;;;;834.27;773.23;;;5.80;99.90;;;;;;5006160;28;20479;-58
2023/01/30 09:06:53;;;;;;;831.97;771.20;;;5.80;99.90;;;;;;5010336;28;20497;-59
2023/01/30 09:09:19;;;;;;;860.92;798.50;;;5.90;99.90;;;;;;5010979;28;20387;-57
2023/01/30 09:11:46;;;;;;;802.45;744.53;;;5.90;99.90;;;;;;5012036;28;20708;-55
2023/01/30 09:14:13;;;;;;;815.63;756.22;;;6.00;99.90;;;;;;5011150;28;20388;-56
2023/01/30 09:16:38;;;;;;;767.55;712.47;;;6.00;99.90;;;;;;5009069;28;21072;-57
2023/01/30 09:19:04;;;;;;;774.40;719.23;;;6.00;99.90;;;;;;5010414;28;20395;-58
2023/01/30 09:21:30;;;;;;;766.10;711.00;;;6.00;99.90;;;;;;5018388;28;20822;-55
2023/01/30 09:23:56;;;;;;;669.45;623.38;;;6.00;99.90;;;;;;5020069;28;20391;-58
2023/01/30 09:26:22;;;;;;;622.95;581.55;;;6.00;99.90;;;;;;5022140;28;20831;-57
2023/01/30 09:28:48;;;;;;;612.65;571.22;;;6.00;99.90;;;;;;5020533;28;20410;-57
2023/01/30 09:31:14;;;;;;;583.00;543.37;;;6.00;99.90;;;;;;5022960;28;20395;-58
2023/01/30 09:33:39;;;;;;;529.93;494.90;;;6.00;99.90;;;;;;5024867;28;20982;-56
2023/01/30 09:36:06;;;;;;;464.45;434.63;;;6.10;99.90;;;;;;5024506;28;20511;-54
2023/01/30 09:38:31;;;;;;;511.87;478.57;;;6.10;99.90;;;;;;5025978;28;20635;-58
2023/01/30 09:41:27;;;;;;;637.17;592.17;;;6.10;99.90;;;;;;5023419;28;21051;-56
2023/01/30 09:44:16;;;;;;;475.65;444.15;;;6.40;99.90;;;;;;5022991;28;20818;-58
2023/01/30 09:47:15;;;;;;;338.40;317.60;;;6.70;99.90;;;;;;5029246;28;20720;-59
2023/01/30 09:50:16;;;;;;;333.92;313.23;;;6.80;99.90;;;;;;5049833;28;20855;-58
2023/01/30 09:52:51;;;;;;;348.45;327.27;;;6.70;99.90;;;;;;5028408;28;20414;-57
2023/01/30 09:55:20;;;;;;;342.30;320.90;;;6.80;99.90;;;;;;5030034;28;20449;-55
2023/01/30 09:57:47;;;;;;;479.30;449.88;;;6.80;99.90;;;;;;5031154;28;20387;-57
2023/01/30 10:00:36;;;;;;;406.58;382.10;;;7.00;99.90;;;;;;5031766;28;20383;-54
2023/01/30 10:03:14;;;;;;;357.35;335.40;;;6.90;99.90;;;;;;5030515;28;20406;-57
2023/01/30 10:05:57;;;;;;;415.77;390.63;;;6.70;99.90;;;;;;5031935;28;20425;-56
2023/01/30 10:09:12;;;;;;;606.60;567.15;;;6.50;99.90;;;;;;5024688;28;20506;-59
2023/01/30 10:11:59;;;;;;;819.43;760.27;;;6.40;99.90;;;;;;5001507;28;20517;-54
2023/01/30 10:14:31;;;;;;;952.97;876.75;;;6.10;99.90;;;;;;4998532;28;20395;-59
2023/01/30 10:17:14;;;;;;;924.08;849.38;;;5.90;99.90;;;;;;5032297;28;20753;-57
2023/01/30 10:20:01;;;;;;;904.35;835.10;;;5.80;99.90;;;;;;5020706;28;20395;-58
2023/01/30 10:22:36;;;;;;;877.33;814.17;;;5.60;99.90;;;;;;5022791;28;20401;-59
2023/01/30 10:25:36;;;;;;;845.92;787.63;;;5.40;99.90;;;;;;5026341;28;20403;-58
2023/01/30 10:28:25;;;;;;;885.33;823.35;;;5.30;99.90;;;;;;5028129;28;20474;-59
2023/01/30 10:31:12;;;;;;;893.88;830.13;;;5.10;99.90;;;;;;5026735;28;20390;-56
2023/01/30 10:33:51;;;;;;;908.33;842.53;;;5.00;99.90;;;;;;5027749;28;20398;-58
2023/01/30 10:36:35;;;;;;;953.40;881.58;;;4.80;99.90;;;;;;5028887;28;20460;-59
2023/01/30 10:39:09;;;;;;;959.08;886.08;;;4.80;99.90;;;;;;5027047;28;20391;-59
2023/01/30 10:41:41;;;;;;;941.50;871.47;;;4.80;99.90;;;;;;5028014;28;20394;-57
2023/01/30 10:44:12;;;;;;;987.83;912.92;;;4.80;99.90;;;;;;5026675;28;20460;-57
2023/01/30 10:46:58;;;;;;;953.77;881.47;;;4.80;99.90;;;;;;5026458;28;20387;-59
2023/01/30 10:49:45;;;;;;;962.60;889.78;;;4.90;99.90;;;;;;5027606;28;20458;-57
2023/01/30 10:52:26;;;;;;;916.22;846.75;;;5.10;99.90;;;;;;5026319;28;20814;-59
2023/01/30 10:55:14;;;;;;;912.60;844.33;;;5.20;99.90;;;;;;5025416;28;20830;-58
2023/01/30 10:57:48;;;;;;;848.67;786.88;;;5.30;99.90;;;;;;5024766;28;20395;-57
2023/01/30 11:00:23;;;;;;;868.85;805.33;;;5.30;99.90;;;;;;5024468;28;20391;-59
2023/01/30 11:03:19;;;;;;;889.25;822.78;;;5.30;99.90;;;;;;5023601;28;20425;-59
2023/01/30 11:05:53;;;;;;;881.10;814.83;;;5.30;99.90;;;;;;5021034;28;20379;-57
2023/01/30 11:08:20;;;;;;;898.65;831.72;;;5.20;99.90;;;;;;5023575;28;20727;-58
2023/01/30 11:10:46;;;;;;;939.45;869.28;;;5.20;99.90;;;;;;5022595;28;20387;-59
2023/01/30 11:13:17;;;;;;;992.70;916.10;;;5.00;99.90;;;;;;5020816;28;20456;-59
2023/01/30 11:15:45;;;;;;;960.37;886.70;;;4.90;99.90;;;;;;5024313;28;20845;-60
2023/01/30 11:18:12;;;;;;;1009.45;932.03;;;4.80;99.90;;;;;;5025438;28;20383;-60
2023/01/30 11:20:44;;;;;;;932.67;862.85;;;4.70;99.90;;;;;;5025513;28;20427;-60
2023/01/30 11:23:33;;;;;;;964.85;891.85;;;4.70;99.90;;;;;;5027704;28;20395;-60
2023/01/30 11:26:00;;;;;;;971.40;895.78;;;4.70;99.90;;;;;;5026216;28;20402;-58
2023/01/30 11:28:33;;;;;;;1006.80;928.45;;;4.70;99.90;;;;;;5028063;28;20407;-60
2023/01/30 11:31:00;;;;;;;925.75;856.78;;;4.60;99.90;;;;;;5027739;28;20386;-55
2023/01/30 11:33:37;;;;;;;947.17;874.97;;;4.60;99.90;;;;;;5027860;28;20465;-59
2023/01/30 11:36:25;;;;;;;960.08;886.22;;;4.60;99.90;;;;;;5028260;28;20870;-58
2023/01/30 11:39:00;;;;;;;978.30;903.30;;;4.60;99.90;;;;;;5026290;28;20383;-57
2023/01/30 11:41:26;;;;;;;999.53;921.83;;;4.60;99.90;;;;;;5021336;28;20379;-59
2023/01/30 11:44:00;;;;;;;958.92;883.22;;;4.60;99.90;;;;;;5023653;28;21042;-58
2023/01/30 11:46:30;;;;;;;986.53;909.95;;;4.70;99.90;;;;;;5022088;28;20387;-56
2023/01/30 11:49:20;;;;;;;1030.68;948.33;;;4.70;99.90;;;;;;5022114;28;20782;-58
2023/01/30 11:51:48;;;;;;;962.60;888.20;;;4.70;99.90;;;;;;5050399;28;20669;-57
2023/01/30 11:54:27;;;;;;;977.80;901.95;;;4.80;99.90;;;;;;5012302;28;20576;-57
2023/01/30 11:56:55;;;;;;;973.45;898.65;;;4.90;99.90;;;;;;5014808;28;20426;-60
2023/01/30 11:59:37;;;;;;;867.08;801.67;;;5.00;99.90;;;;;;5014728;28;20904;-59
2023/01/30 12:02:04;;;;;;;819.30;760.00;;;5.30;99.90;;;;;;5019435;28;20493;-60
2023/01/30 12:04:29;;;;;;;775.15;720.83;;;5.40;99.90;;;;;;5020985;28;20477;-57
2023/01/30 12:07:18;;;;;;;756.92;704.85;;;5.40;99.90;;;;;;5019444;28;20415;-59
2023/01/30 12:09:43;;;;;;;743.47;693.03;;;5.50;99.90;;;;;;5020218;28;20379;-60
2023/01/30 12:12:42;;;;;;;714.97;667.07;;;5.60;99.90;;;;;;5019710;28;20394;-59
2023/01/30 12:15:30;;;;;;;682.15;635.35;;;5.80;99.90;;;;;;5015885;28;20520;-59
2023/01/30 12:18:00;;;;;;;727.75;677.72;;;5.80;99.90;;;;;;5014190;28;20397;-58
2023/01/30 12:20:51;;;;;;;744.13;691.33;;;5.90;99.90;;;;;;5011104;28;20799;-60
2023/01/30 12:23:35;;;;;;;761.42;707.30;;;5.80;99.90;;;;;;5010301;28;20708;-56
2023/01/30 12:26:21;;;;;;;718.90;669.10;;;5.70;99.90;;;;;;5008147;28;20501;-59
2023/01/30 12:29:16;;;;;;;743.28;692.63;;;5.60;99.90;;;;;;5011509;28;20482;-57
2023/01/30 12:31:47;;;;;;;817.88;761.42;;;5.50;99.90;;;;;;5004898;28;20678;-58
2023/01/30 12:34:12;;;;;;;802.33;744.50;;;5.40;99.90;;;;;;5007068;28;20490;-58
2023/01/30 12:36:54;;;;;;;864.80;805.13;;;5.30;99.90;;;;;;5005911;28;20402;-60
2023/01/30 12:39:38;;;;;;;877.17;817.53;;;5.20;99.90;;;;;;5003529;28;21055;-59